Time;durP1;ratioP1;P1;durP2;ratioP2;P2;SDS_P1;SDS_P2;PMS_P1;PMS_P2;Temp;Humidity;BMP_temperature;BMP_pressure;BME280_temperature;BME280_humidity;BME280_pressure;Samples;Min_cycle;Max_cycle;Signal;HPM_P1;HPM_P2
2023/02/10 00:06:20;;;;;;;1999.90;999.90;;;1.70;99.90;;;;;;6754920;88;20192;-79
2023/02/10 00:16:20;;;;;;;1999.90;999.90;;;1.80;99.90;;;;;;6759293;88;20674;-77
2023/02/10 00:26:21;;;;;;;1999.90;999.90;;;2.00;99.90;;;;;;6755649;88;21023;-76
2023/02/10 00:36:24;;;;;;;1999.90;999.90;;;1.90;99.90;;;;;;6756338;87;20191;-76
2023/02/10 00:46:24;;;;;;;1999.90;999.90;;;2.10;99.90;;;;;;6747342;88;20231;-75
2023/02/10 00:56:25;;;;;;;1999.90;999.90;;;1.80;99.90;;;;;;6739999;88;20196;-76
2023/02/10 01:06:25;;;;;;;1999.90;999.90;;;2.00;99.90;;;;;;6757794;88;20189;-76
2023/02/10 01:16:26;;;;;;;1999.90;999.90;;;2.00;99.90;;;;;;6738746;88;20202;-79
2023/02/10 01:26:26;;;;;;;1999.90;999.90;;;2.20;99.90;;;;;;6738904;88;20249;-77
2023/02/10 01:36:27;;;;;;;1999.90;999.90;;;2.40;99.90;;;;;;6738727;88;20259;-76
2023/02/10 01:46:29;;;;;;;1999.90;999.90;;;2.40;99.90;;;;;;6746154;87;20742;-76
2023/02/10 01:56:30;;;;;;;1999.90;999.90;;;2.50;99.90;;;;;;6772956;87;20503;-76
2023/02/10 02:06:32;;;;;;;1999.90;999.90;;;2.70;99.90;;;;;;6769266;87;20236;-76
2023/02/10 02:16:50;;;;;;;1999.90;999.90;;;2.70;99.90;;;;;;6739177;88;21330;-76
2023/02/10 02:27:17;;;;;;;1999.90;999.90;;;2.70;99.90;;;;;;6737649;88;20172;-76
2023/02/10 02:37:26;;;;;;;1999.90;999.90;;;2.80;99.90;;;;;;6746104;87;20196;-75
2023/02/10 02:47:29;;;;;;;1999.90;999.90;;;2.80;99.90;;;;;;6740412;88;20201;-76
2023/02/10 02:57:47;;;;;;;1999.90;999.90;;;2.60;99.90;;;;;;6750694;88;20320;-76
2023/02/10 03:07:48;;;;;;;1999.90;999.90;;;2.70;99.90;;;;;;6754377;88;20203;-78
2023/02/10 03:17:49;;;;;;;1999.90;999.90;;;2.50;99.90;;;;;;6749187;88;20608;-76
2023/02/10 03:27:49;;;;;;;1999.90;999.90;;;2.40;99.90;;;;;;6753474;88;20683;-76
2023/02/10 03:37:50;;;;;;;1999.90;999.90;;;2.40;99.90;;;;;;6753866;88;20263;-76
2023/02/10 03:47:50;;;;;;;1999.90;999.90;;;2.30;99.90;;;;;;6761285;87;20184;-76
2023/02/10 03:57:51;;;;;;;1999.90;999.90;;;2.20;99.90;;;;;;6777033;87;20183;-76
2023/02/10 04:07:52;;;;;;;1999.90;999.90;;;2.20;99.90;;;;;;6770717;87;20940;-76
2023/02/10 04:17:52;;;;;;;1999.90;999.90;;;2.20;99.90;;;;;;6769279;87;20637;-76
2023/02/10 04:27:53;;;;;;;1999.90;999.90;;;2.10;99.90;;;;;;6754421;88;20241;-76
2023/02/10 04:37:53;;;;;;;1999.90;999.90;;;1.90;99.90;;;;;;6760663;88;20598;-76
2023/02/10 04:47:54;;;;;;;1999.90;999.90;;;1.90;99.90;;;;;;6760375;88;20689;-76
2023/02/10 04:57:54;;;;;;;1999.90;999.90;;;1.70;99.90;;;;;;6758191;88;20344;-76
2023/02/10 05:07:55;;;;;;;1999.90;999.90;;;1.80;99.90;;;;;;6757299;88;20167;-77
2023/02/10 05:17:55;;;;;;;1999.90;999.90;;;1.70;99.90;;;;;;6756007;88;20497;-76
2023/02/10 05:27:56;;;;;;;1999.90;999.90;;;1.80;99.90;;;;;;6755400;88;20615;-77
2023/02/10 05:37:57;;;;;;;1999.90;999.90;;;1.80;99.90;;;;;;6755789;88;20211;-76
2023/02/10 05:47:57;;;;;;;1999.90;999.90;;;1.70;99.90;;;;;;6755802;88;20205;-76
2023/02/10 05:57:58;;;;;;;1999.90;999.90;;;1.50;99.90;;;;;;6755502;88;20225;-76
2023/02/10 06:07:58;;;;;;;1999.90;999.90;;;1.40;99.90;;;;;;6755531;88;20318;-76
2023/02/10 06:17:59;;;;;;;1999.90;999.90;;;1.10;99.90;;;;;;6754742;88;20268;-77
2023/02/10 06:27:59;;;;;;;1999.90;999.90;;;1.00;99.90;;;;;;6755659;88;20210;-77
2023/02/10 06:38:00;;;;;;;1999.90;999.90;;;0.80;99.90;;;;;;6755006;88;20215;-76
2023/02/10 06:48:02;;;;;;;1999.90;999.90;;;0.70;99.90;;;;;;6754533;88;20355;-76
2023/02/10 06:58:03;;;;;;;1999.90;999.90;;;0.80;99.90;;;;;;6762975;88;20164;-78
2023/02/10 07:08:04;;;;;;;1999.90;999.90;;;0.80;99.90;;;;;;6771374;88;20229;-76
2023/02/10 07:18:09;;;;;;;1999.90;999.90;;;1.10;99.90;;;;;;6769832;87;20200;-77
2023/02/10 07:28:10;;;;;;;1999.90;999.90;;;1.50;99.90;;;;;;6763531;87;20173;-77
2023/02/10 07:38:17;;;;;;;1999.90;999.90;;;1.60;99.90;;;;;;6755784;87;20712;-77
2023/02/10 07:48:20;;;;;;;1999.90;999.90;;;1.70;99.90;;;;;;6750997;87;20643;-77
2023/02/10 07:58:21;;;;;;;1999.90;999.90;;;1.80;99.90;;;;;;6751481;87;20717;-76
2023/02/10 08:08:22;;;;;;;1999.90;999.90;;;1.70;99.90;;;;;;6752253;88;20184;-76
2023/02/10 08:18:25;;;;;;;1999.90;999.90;;;1.70;99.90;;;;;;6750674;87;20205;-77
2023/02/10 08:28:46;;;;;;;1999.90;999.90;;;1.90;99.90;;;;;;6759906;87;20213;-77
2023/02/10 08:38:51;;;;;;;1999.90;999.90;;;2.00;99.90;;;;;;6753648;87;20192;-76
2023/02/10 08:48:52;;;;;;;1999.90;999.90;;;2.30;99.90;;;;;;6754436;88;20238;-77
2023/02/10 08:58:53;;;;;;;1999.90;999.90;;;2.40;99.90;;;;;;6754611;88;20203;-77
2023/02/10 09:08:57;;;;;;;1999.90;999.90;;;2.60;99.90;;;;;;6753379;87;20797;-76
2023/02/10 09:19:00;;;;;;;1999.90;999.90;;;3.10;99.90;;;;;;6751870;88;20173;-78
2023/02/10 09:29:03;;;;;;;1999.90;999.90;;;3.50;99.90;;;;;;6750636;88;20181;-77
2023/02/10 09:39:07;;;;;;;1999.90;999.90;;;3.90;99.90;;;;;;6754358;88;20590;-78
2023/02/10 09:49:37;;;;;;;1999.90;999.90;;;4.60;99.90;;;;;;6751734;88;21009;-77
2023/02/10 09:59:47;;;;;;;1999.90;999.90;;;5.10;99.90;;;;;;6754862;88;20196;-77
2023/02/10 10:10:35;;;;;;;1999.90;999.90;;;5.60;99.90;;;;;;6751946;88;20310;-77
2023/02/10 10:21:26;;;;;;;1999.90;999.90;;;6.10;99.90;;;;;;6749492;88;20173;-77
2023/02/10 10:31:45;;;;;;;1999.90;999.90;;;6.40;99.90;;;;;;6733463;88;20960;-77
2023/02/10 10:41:47;;;;;;;1999.90;999.90;;;6.90;99.90;;;;;;6750805;88;20596;-77
2023/02/10 10:51:50;;;;;;;1999.90;999.90;;;6.90;99.90;;;;;;6755172;88;21134;-78
2023/02/10 11:01:53;;;;;;;1999.90;999.90;;;7.20;99.90;;;;;;6753180;88;20203;-78
2023/02/10 11:12:12;;;;;;;1999.90;999.90;;;7.90;99.90;;;;;;6752981;88;20229;-77
2023/02/10 11:22:20;;;;;;;1999.90;999.90;;;7.90;99.90;;;;;;6758026;88;20168;-78
2023/02/10 11:32:32;;;;;;;1999.90;999.90;;;7.90;99.90;;;;;;6769362;87;20196;-78
2023/02/10 11:42:35;;;;;;;1999.90;999.90;;;8.60;99.90;;;;;;6754718;87;20195;-77
2023/02/10 11:52:36;;;;;;;1999.90;999.90;;;10.60;99.90;;;;;;6751304;88;20252;-79
2023/02/10 12:03:06;;;;;;;1999.90;999.90;;;9.80;99.90;;;;;;6752176;88;20197;-77
2023/02/10 12:13:27;;;;;;;1999.90;999.90;;;10.20;99.90;;;;;;6749692;88;20229;-78
2023/02/10 12:23:59;;;;;;;1999.90;999.90;;;11.60;99.90;;;;;;6754532;88;20287;-78
2023/02/10 12:34:10;;;;;;;1999.90;999.90;;;10.20;99.90;;;;;;6754271;88;20284;-79
2023/02/10 12:44:29;;;;;;;1999.90;999.90;;;10.50;99.90;;;;;;6754803;88;20631;-79
2023/02/10 12:54:33;;;;;;;1999.90;999.90;;;10.60;99.90;;;;;;6754485;88;20205;-80
2023/02/10 13:04:45;;;;;;;1999.90;999.90;;;10.00;99.90;;;;;;6755864;87;20743;-78
2023/02/10 13:14:48;;;;;;;1999.90;999.90;;;10.10;99.90;;;;;;6755249;88;20287;-79
2023/02/10 13:25:03;;;;;;;1999.90;999.90;;;13.30;99.30;;;;;;6752721;88;20687;-78
2023/02/10 13:35:15;;;;;;;1999.90;999.90;;;11.80;99.60;;;;;;6748675;88;20608;-79
2023/02/10 13:45:24;;;;;;;1999.90;999.90;;;10.90;99.90;;;;;;6749098;88;20314;-78
2023/02/10 13:55:36;;;;;;;1999.90;999.90;;;10.50;99.90;;;;;;6738126;88;20248;-78
2023/02/10 14:05:57;;;;;;;1999.90;999.90;;;10.70;99.90;;;;;;6749598;88;20168;-77
2023/02/10 14:16:07;;;;;;;1999.90;999.90;;;9.80;99.90;;;;;;6749510;88;20633;-76
2023/02/10 14:26:16;;;;;;;1999.90;999.90;;;9.40;99.90;;;;;;6749941;88;20239;-77
2023/02/10 14:36:18;;;;;;;1999.90;999.90;;;9.70;99.90;;;;;;6745161;88;20278;-77
2023/02/10 14:46:37;;;;;;;1999.90;999.90;;;10.30;99.90;;;;;;6752380;87;20693;-77
2023/02/10 14:56:37;;;;;;;1999.90;999.90;;;10.90;99.90;;;;;;6748590;88;20846;-77
2023/02/10 15:06:38;;;;;;;1999.90;999.90;;;10.70;99.90;;;;;;6751966;88;20196;-77
2023/02/10 15:16:38;;;;;;;1999.90;999.90;;;10.70;99.90;;;;;;6760360;87;20270;-77
2023/02/10 15:26:40;;;;;;;1999.90;999.90;;;10.50;99.90;;;;;;6749804;88;20190;-79
2023/02/10 15:36:46;;;;;;;1999.90;999.90;;;10.40;99.90;;;;;;6750218;88;20662;-76
2023/02/10 15:47:11;;;;;;;1999.90;999.90;;;10.00;99.90;;;;;;6746866;88;20212;-76
2023/02/10 15:57:12;;;;;;;1999.90;999.90;;;9.90;99.90;;;;;;6749485;88;20189;-76
2023/02/10 16:07:23;;;;;;;1999.90;999.90;;;9.80;99.90;;;;;;6748771;88;20258;-76
2023/02/10 16:17:27;;;;;;;1999.90;999.90;;;9.40;99.90;;;;;;6748178;87;20753;-77
2023/02/10 16:27:28;;;;;;;1999.90;999.90;;;8.80;99.90;;;;;;6750373;88;20617;-78
2023/02/10 16:37:28;;;;;;;1999.90;999.90;;;8.40;99.90;;;;;;6739914;88;20208;-79
2023/02/10 16:47:29;;;;;;;1999.90;999.90;;;8.10;99.90;;;;;;6739156;88;20180;-78
2023/02/10 16:57:29;;;;;;;1999.90;999.90;;;7.80;99.90;;;;;;6753130;88;20236;-78
2023/02/10 17:07:30;;;;;;;1999.90;999.90;;;7.20;99.90;;;;;;6746860;88;20176;-78
2023/02/10 17:17:30;;;;;;;1999.90;999.90;;;7.00;99.90;;;;;;6737106;87;20330;-77
2023/02/10 17:27:31;;;;;;;1999.90;999.90;;;6.60;99.90;;;;;;6755620;88;20208;-78
2023/02/10 17:47:37;;;;;;;1999.90;999.90;;;6.30;99.90;;;;;;6772150;87;20180;-78
2023/02/10 17:57:37;;;;;;;1999.90;999.90;;;5.90;99.90;;;;;;6759118;88;20205;-79
2023/02/10 18:07:38;;;;;;;1999.90;999.90;;;5.70;99.90;;;;;;6761436;88;20204;-78
2023/02/10 18:17:41;;;;;;;1999.90;999.90;;;5.60;99.90;;;;;;6749094;88;20322;-78
2023/02/10 18:27:42;;;;;;;1999.90;999.90;;;5.40;99.90;;;;;;6747204;88;20255;-77
2023/02/10 18:37:44;;;;;;;1999.90;999.90;;;5.20;99.90;;;;;;6750049;88;20244;-77
2023/02/10 18:47:45;;;;;;;1999.90;999.90;;;5.00;99.90;;;;;;6748148;88;20226;-79
2023/02/10 18:57:46;;;;;;;1999.90;999.90;;;4.90;99.90;;;;;;6752429;88;20192;-76
2023/02/10 19:07:46;;;;;;;1999.90;999.90;;;4.80;99.90;;;;;;6746163;88;20200;-78
2023/02/10 19:17:47;;;;;;;1999.90;999.90;;;4.90;99.90;;;;;;6736802;88;20187;-78
2023/02/10 19:27:47;;;;;;;1999.90;999.90;;;4.90;99.90;;;;;;6743296;88;20666;-78
2023/02/10 19:37:48;;;;;;;1999.90;999.90;;;5.10;99.90;;;;;;6744775;88;20201;-79
2023/02/10 19:47:48;;;;;;;1999.90;999.90;;;5.10;99.90;;;;;;6743566;88;20202;-80
2023/02/10 19:57:49;;;;;;;1999.90;999.90;;;5.50;99.90;;;;;;6756950;88;20176;-80
2023/02/10 20:07:49;;;;;;;1999.90;999.90;;;5.40;99.90;;;;;;6760984;88;20157;-79
2023/02/10 20:17:50;;;;;;;1999.90;999.90;;;5.10;99.90;;;;;;6750739;88;20645;-80
2023/02/10 20:27:50;;;;;;;1999.90;999.90;;;5.20;99.90;;;;;;6749932;88;20269;-79
2023/02/10 20:37:51;;;;;;;1999.90;999.90;;;5.20;99.90;;;;;;6748821;88;20301;-79
2023/02/10 20:47:51;;;;;;;1999.90;999.90;;;5.30;99.90;;;;;;6747605;88;20210;-79
2023/02/10 20:57:52;;;;;;;1999.90;999.90;;;5.40;99.90;;;;;;6751101;88;20240;-79
2023/02/10 21:07:53;;;;;;;1999.90;999.90;;;5.30;99.90;;;;;;6747805;88;20612;-80
2023/02/10 21:17:53;;;;;;;1999.90;999.90;;;5.10;99.90;;;;;;6749535;88;20301;-80
2023/02/10 21:27:54;;;;;;;1999.90;999.90;;;5.10;99.90;;;;;;6742190;88;20197;-80
2023/02/10 21:37:54;;;;;;;1999.90;999.90;;;5.10;99.90;;;;;;6749653;87;20341;-79
2023/02/10 21:47:55;;;;;;;1999.90;999.90;;;5.10;99.90;;;;;;6752911;88;20185;-79
2023/02/10 21:57:55;;;;;;;1999.90;999.90;;;5.00;99.90;;;;;;6747915;88;20381;-79
2023/02/10 22:07:56;;;;;;;1999.90;999.90;;;4.90;99.90;;;;;;6745559;88;20173;-78
2023/02/10 22:17:56;;;;;;;1999.90;999.90;;;5.00;99.90;;;;;;6745766;88;21051;-79
2023/02/10 22:27:57;;;;;;;1999.90;999.90;;;5.00;99.90;;;;;;6745330;88;20348;-79
2023/02/10 22:37:58;;;;;;;1999.90;999.90;;;4.90;99.90;;;;;;6750655;88;20353;-79
2023/02/10 22:47:58;;;;;;;1999.90;999.90;;;4.90;99.90;;;;;;6742541;88;20281;-78
2023/02/10 22:57:59;;;;;;;1999.90;999.90;;;4.90;99.90;;;;;;6745272;88;20281;-78
2023/02/10 23:08:00;;;;;;;1999.90;999.90;;;4.90;99.90;;;;;;6742189;88;20197;-78
2023/02/10 23:18:01;;;;;;;1999.90;999.90;;;5.00;99.90;;;;;;6745404;88;20709;-78
2023/02/10 23:28:01;;;;;;;1999.90;999.90;;;5.00;99.90;;;;;;6741342;88;20341;-78
2023/02/10 23:38:02;;;;;;;1999.90;999.90;;;5.00;99.90;;;;;;6751370;78;20225;-75
2023/02/10 23:48:04;;;;;;;1999.90;999.90;;;4.90;99.90;;;;;;6727874;88;20189;-75
2023/02/10 23:58:04;;;;;;;1999.90;999.90;;;4.90;99.90;;;;;;6718155;88;20609;-75
